Time;durP1;ratioP1;P1;durP2;ratioP2;P2;SDS_P1;SDS_P2;PMS_P1;PMS_P2;Temp;Humidity;BMP_temperature;BMP_pressure;BME280_temperature;BME280_humidity;BME280_pressure;Samples;Min_cycle;Max_cycle;Signal;HPM_P1;HPM_P2
2022/03/25 06:25:02;;;;;;;79.17;45.80;;;;;;;2.76;84.23;102889.81;5043509;28;20426;-82
2022/03/25 06:37:47;;;;;;;84.10;46.20;;;;;;;3.48;82.41;102914.97;5035420;28;20040;-82
2022/03/25 06:51:23;;;;;;;82.75;48.33;;;;;;;3.96;81.82;102917.63;5054614;28;20423;-82
2022/03/25 06:57:18;;;;;;;81.17;48.70;;;;;;;4.02;81.42;102894.84;5035473;28;20033;-83
2022/03/25 07:06:38;;;;;;;82.87;49.87;;;;;;;4.51;80.26;102901.72;5041088;28;20044;-83
2022/03/25 07:12:28;;;;;;;83.97;50.50;;;;;;;4.83;79.39;102909.06;5035675;28;20048;-83
2022/03/25 07:18:27;;;;;;;80.90;50.77;;;;;;;5.17;78.78;102905.50;5055567;28;20039;-83
2022/03/25 07:20:53;;;;;;;81.73;51.30;;;;;;;5.34;78.19;102918.38;5046286;28;20099;-84
2022/03/25 07:26:40;;;;;;;83.13;49.93;;;;;;;5.78;77.27;102955.16;5033499;28;20056;-84
2022/03/25 07:29:10;;;;;;;87.40;52.83;;;;;;;5.69;77.40;102914.59;5053419;28;20045;-82
2022/03/25 07:34:58;;;;;;;85.23;53.60;;;;;;;6.37;76.71;102956.50;5058680;28;20024;-85
2022/03/25 07:37:23;;;;;;;89.00;53.83;;;;;;;6.29;76.60;102929.38;5046673;28;20384;-83
2022/03/25 07:40:09;;;;;;;85.90;53.63;;;;;;;6.67;75.95;102961.06;5031699;28;20084;-85
2022/03/25 07:42:44;;;;;;;83.77;53.77;;;;;;;6.62;75.57;102927.44;5051859;28;20052;-83
2022/03/25 07:45:14;;;;;;;83.93;54.67;;;;;;;6.86;75.21;102937.91;5038972;28;20032;-83
2022/03/25 07:47:48;;;;;;;84.87;54.70;;;;;;;7.09;74.97;102947.47;5044446;28;20033;-89
2022/03/25 07:50:16;;;;;;;85.30;55.33;;;;;;;7.28;73.99;102955.78;5043340;28;20514;-85
2022/03/25 07:52:42;;;;;;;83.80;55.37;;;;;;;7.53;73.44;102976.81;5044657;28;20413;-86
2022/03/25 07:55:11;;;;;;;82.00;53.77;;;;;;;7.55;72.00;102947.84;5044062;28;20115;-87
2022/03/25 07:57:40;;;;;;;83.43;53.47;;;;;;;7.74;71.12;102956.97;5038379;28;20037;-83
2022/03/25 08:00:48;;;;;;;82.13;54.03;;;;;;;8.12;71.86;102990.38;5047611;28;20036;-83
2022/03/25 08:03:25;;;;;;;;;;;;;;;;;;;;;
2022/03/25 08:09:53;;;;;;;75.20;50.03;;;;;;;8.76;68.84;102991.56;5037608;28;20052;-83
2022/03/25 08:12:24;;;;;;;71.40;48.27;;;;;;;8.76;67.73;102974.50;5038026;28;20045;-86
2022/03/25 08:14:55;;;;;;;71.17;49.23;;;;;;;9.17;66.96;102982.31;5038861;28;20064;-84
2022/03/25 08:17:41;;;;;;;71.77;49.90;;;;;;;9.42;66.12;102962.66;5051525;28;20131;-83
2022/03/25 08:20:08;;;;;;;65.80;47.73;;;;;;;9.60;63.14;102969.91;5029033;28;20056;-85
2022/03/25 08:23:06;;;;;;;65.03;45.93;;;;;;;10.12;64.28;102985.50;5025774;28;20098;-83
2022/03/25 08:31:52;;;;;;;62.73;44.07;;;;;;;11.78;60.13;103017.94;4947257;29;20509;-86
2022/03/25 08:34:26;;;;;;;57.20;40.30;;;;;;;11.95;55.04;102970.78;4919606;28;20043;-84
2022/03/25 08:36:54;;;;;;;52.60;38.33;;;;;;;12.25;53.20;102973.84;5027346;28;20038;-83
2022/03/25 08:42:47;;;;;;;52.20;37.80;;;;;;;13.10;51.89;102994.22;5041451;28;20106;-84
2022/03/25 08:45:34;;;;;;;52.50;37.97;;;;;;;13.57;53.01;102989.78;5054660;28;20048;-84
2022/03/25 08:48:03;;;;;;;51.20;38.63;;;;;;;13.75;49.86;102984.03;5031015;28;20028;-89
2022/03/25 08:57:14;;;;;;;54.73;39.90;;;;;;;13.98;46.80;102994.06;5055065;28;20066;-84
2022/03/25 09:00:29;;;;;;;51.20;39.23;;;;;;;14.68;49.96;103020.25;5032170;28;20476;-84
2022/03/25 09:03:09;;;;;;;54.77;39.20;;;;;;;14.81;47.25;102999.63;5042066;28;20049;-87
2022/03/25 09:05:37;;;;;;;52.37;37.97;;;;;;;15.23;45.33;103008.19;5049409;28;20030;-83
2022/03/25 09:08:10;;;;;;;51.73;38.63;;;;;;;15.43;44.59;103008.47;5033213;28;20112;-87
2022/03/25 09:11:04;;;;;;;49.60;37.73;;;;;;;15.64;42.33;102989.38;5025996;28;20045;-84
2022/03/25 09:13:33;;;;;;;;;;;;;;;16.52;46.94;103030.19;5046904;28;20041;-86
2022/03/25 09:16:44;;;;;;;49.63;37.33;;;;;;;16.40;45.37;103028.19;5046201;28;19918;-86
2022/03/25 09:19:09;;;;;;;50.83;35.57;;;;;;;16.47;41.50;103020.88;5049613;28;20465;-89
2022/03/25 09:25:11;;;;;;;46.83;34.20;;;;;;;17.04;41.87;103039.00;5019654;28;20041;-84
2022/03/25 09:27:54;;;;;;;45.80;34.80;;;;;;;17.29;41.91;103015.75;5047978;28;20369;-85
2022/03/25 09:30:27;;;;;;;45.85;33.28;;;;;;;16.59;39.13;103013.84;5046119;28;20099;-85
2022/03/25 09:33:09;;;;;;;41.83;31.70;;;;;;;16.97;37.98;103005.28;5047908;28;20132;-81
2022/03/25 09:35:36;;;;;;;40.83;29.98;;;;;;;16.92;36.74;103005.03;5043514;28;21232;-85
2022/03/25 09:38:18;;;;;;;40.08;30.35;;;;;;;17.30;38.15;103031.97;5031363;28;20040;-88
2022/03/25 09:41:06;;;;;;;40.50;29.40;;;;;;;17.66;39.18;103043.69;5037938;28;20049;-83
2022/03/25 09:43:31;;;;;;;42.67;31.52;;;;;;;17.56;36.57;103016.69;5023224;28;20134;-84
2022/03/25 09:46:21;;;;;;;44.00;33.03;;;;;;;17.59;36.68;103016.25;5043798;28;20041;-82
2022/03/25 09:48:46;;;;;;;43.15;31.60;;;;;;;17.79;35.79;103001.75;5046697;28;20189;-82
2022/03/25 09:51:38;;;;;;;44.08;30.50;;;;;;;18.45;36.39;103027.59;5047714;28;20543;-82
2022/03/25 09:54:19;;;;;;;42.67;30.13;;;;;;;18.23;36.04;102998.47;5017246;28;20972;-86
2022/03/25 09:56:45;;;;;;;40.53;29.77;;;;;;;18.41;35.18;102990.66;5022480;28;20037;-83
2022/03/25 09:59:17;;;;;;;41.45;32.00;;;;;;;18.64;35.25;102993.78;5036742;28;20060;-83
2022/03/25 10:01:47;;;;;;;39.13;27.95;;;;;;;18.87;34.23;102998.81;5036889;28;20048;-83
2022/03/25 10:04:55;;;;;;;39.03;28.00;;;;;;;19.11;33.26;102988.22;5041633;28;20050;-83
2022/03/25 10:07:25;;;;;;;39.85;27.55;;;;;;;19.12;33.35;103024.75;4978279;28;20054;-86
2022/03/25 10:10:05;;;;;;;41.45;28.63;;;;;;;19.37;34.79;103017.47;5033557;28;20048;-81
2022/03/25 10:15:56;;;;;;;35.92;27.20;;;;;;;19.46;33.06;102995.25;5035895;28;20036;-81
2022/03/25 10:22:01;;;;;;;40.00;29.60;;;;;;;19.92;34.28;103016.16;5041959;28;20027;-82
2022/03/25 10:25:09;;;;;;;38.95;30.50;;;;;;;20.20;33.82;102996.47;5023864;28;20032;-82
2022/03/25 10:31:21;;;;;;;38.13;28.95;;;;;;;20.01;31.30;103013.97;4995972;28;20061;-82
2022/03/25 10:33:57;;;;;;;36.20;26.95;;;;;;;19.85;31.02;103016.19;4994262;28;20960;-82
2022/03/25 10:36:26;;;;;;;34.97;26.50;;;;;;;19.89;31.52;102991.84;4994483;28;20158;-82
2022/03/25 10:45:39;;;;;;;38.80;27.67;;;;;;;20.46;29.88;103011.06;4994420;28;20036;-84
2022/03/25 10:48:21;;;;;;;36.85;27.38;;;;;;;20.46;31.80;102986.28;4989979;28;20174;-84
2022/03/25 10:51:10;;;;;;;35.53;25.60;;;;;;;20.64;31.32;103004.75;4984518;28;20652;-84
2022/03/25 10:53:37;;;;;;;35.03;26.63;;;;;;;20.49;29.37;103012.53;4989064;28;20486;-87
2022/03/25 10:56:08;;;;;;;31.38;22.83;;;;;;;20.34;29.31;103018.38;5006586;28;20055;-85
2022/03/25 10:58:34;;;;;;;34.22;25.77;;;;;;;20.21;30.19;103008.34;5006646;28;20895;-85
2022/03/25 11:01:01;;;;;;;36.40;27.30;;;;;;;20.30;30.40;103006.97;5007068;28;20765;-84
2022/03/25 11:03:27;;;;;;;37.28;28.80;;;;;;;20.19;30.49;103008.53;5007093;28;20407;-88
2022/03/25 11:05:53;;;;;;;36.40;28.98;;;;;;;20.26;29.54;103013.97;5007127;28;20042;-86
2022/03/25 11:08:19;;;;;;;38.50;26.23;;;;;;;19.88;30.76;102993.75;4992047;28;20041;-86
2022/03/25 11:10:44;;;;;;;34.30;25.27;;;;;;;20.18;30.38;103008.75;5006830;28;20621;-83
2022/03/25 11:13:10;;;;;;;38.88;26.58;;;;;;;20.48;30.39;103005.31;5005907;28;20137;-86
2022/03/25 11:15:38;;;;;;;39.55;29.75;;;;;;;20.46;32.10;102994.53;5020981;28;21177;-83
2022/03/25 11:18:03;;;;;;;38.50;30.00;;;;;;;20.70;30.86;102984.59;5004333;28;20050;-85
2022/03/25 11:20:30;;;;;;;38.20;28.23;;;;;;;20.80;29.28;103008.84;5004277;28;20053;-85
2022/03/25 11:23:05;;;;;;;32.60;25.95;;;;;;;20.84;29.99;103006.50;5003660;28;20470;-85
2022/03/25 11:25:34;;;;;;;40.65;29.80;;;;;;;20.61;30.78;102996.13;5005885;28;20069;-85
2022/03/25 11:28:04;;;;;;;38.30;28.88;;;;;;;20.22;31.34;102985.22;4987201;28;20064;-84
2022/03/25 11:30:35;;;;;;;39.60;31.30;;;;;;;20.28;32.41;102992.59;5014860;28;20087;-86
2022/03/25 11:33:02;;;;;;;38.97;29.45;;;;;;;20.33;30.94;102970.75;5032354;28;20486;-88
2022/03/25 11:35:30;;;;;;;42.90;31.58;;;;;;;20.66;31.12;102982.50;5031682;28;20533;-86
2022/03/25 11:38:11;;;;;;;39.45;30.98;;;;;;;21.05;31.61;102991.41;5031963;28;20094;-83
2022/03/25 11:40:45;;;;;;;41.05;30.77;;;;;;;20.71;30.26;102974.41;5031276;28;20469;-85
2022/03/25 11:43:13;;;;;;;41.00;32.03;;;;;;;20.73;30.16;102970.34;5031347;28;20094;-85
2022/03/25 11:45:39;;;;;;;40.03;31.10;;;;;;;20.91;30.11;102977.78;5043252;28;20179;-83
2022/03/25 11:48:04;;;;;;;43.88;30.45;;;;;;;20.72;30.23;102982.44;5032912;28;20132;-84
2022/03/25 11:50:32;;;;;;;44.10;31.58;;;;;;;20.70;29.84;102989.28;5032956;28;20135;-84
2022/03/25 11:53:19;;;;;;;43.33;32.10;;;;;;;20.67;30.85;102974.00;5032330;28;20469;-83
2022/03/25 11:56:09;;;;;;;40.20;31.92;;;;;;;19.97;31.31;102980.56;5030765;28;20072;-85
2022/03/25 11:58:37;;;;;;;45.30;34.35;;;;;;;18.69;31.98;102965.69;5015551;28;20702;-86
2022/03/25 12:01:08;;;;;;;45.42;33.35;;;;;;;19.18;34.36;102974.44;5031948;28;20040;-83
2022/03/25 12:03:49;;;;;;;45.38;34.80;;;;;;;18.67;34.37;102974.16;5033832;28;20429;-83
2022/03/25 12:06:17;;;;;;;44.95;34.00;;;;;;;18.76;34.07;102968.44;5014047;28;20049;-83
2022/03/25 12:09:03;;;;;;;46.13;33.58;;;;;;;19.00;34.57;102970.50;5033418;28;20129;-85
2022/03/25 12:11:48;;;;;;;46.47;34.60;;;;;;;19.06;34.59;102947.63;5036752;28;20094;-85
2022/03/25 12:14:13;;;;;;;45.92;34.88;;;;;;;18.04;33.48;102955.41;5029355;28;20044;-83
2022/03/25 12:16:48;;;;;;;47.15;34.63;;;;;;;18.36;35.75;102970.19;5035588;28;20514;-85
2022/03/25 12:19:25;;;;;;;45.80;33.78;;;;;;;18.41;35.82;102933.03;5033670;28;20316;-81
2022/03/25 12:21:51;;;;;;;47.13;34.60;;;;;;;18.49;34.46;102957.50;5049890;28;20365;-82
2022/03/25 12:24:18;;;;;;;46.90;35.58;;;;;;;18.24;34.73;102947.19;5035766;28;20041;-82
2022/03/25 12:26:44;;;;;;;47.13;35.63;;;;;;;18.36;35.38;102953.72;5033168;28;20048;-86
2022/03/25 12:29:09;;;;;;;47.70;34.50;;;;;;;18.46;35.01;102933.22;5033645;28;20465;-85
2022/03/25 12:31:35;;;;;;;47.72;34.65;;;;;;;18.38;35.54;102926.91;5035106;28;20057;-85
2022/03/25 12:34:02;;;;;;;46.85;31.73;;;;;;;18.51;34.55;102936.19;5030341;28;20381;-86
2022/03/25 12:36:36;;;;;;;47.83;32.85;;;;;;;18.60;35.45;102934.88;5032513;28;20068;-86
2022/03/25 12:39:02;;;;;;;;;;;;;;;19.16;34.61;102952.69;5008061;28;20056;-83
2022/03/25 12:41:29;;;;;;;46.10;31.60;;;;;;;18.70;35.23;102917.97;5050589;28;19916;-83
2022/03/25 12:43:59;;;;;;;47.10;31.45;;;;;;;18.67;34.93;102943.09;5037653;28;20146;-84
2022/03/25 12:46:26;;;;;;;45.40;32.55;;;;;;;18.55;36.58;102918.22;5050485;28;20044;-86
2022/03/25 12:48:51;;;;;;;48.47;34.17;;;;;;;18.45;34.01;102929.63;5033901;28;20136;-82
2022/03/25 12:51:21;;;;;;;48.95;32.80;;;;;;;18.44;34.08;102938.94;5037662;28;20033;-82
2022/03/25 12:53:48;;;;;;;47.35;33.03;;;;;;;18.14;34.54;102911.97;5038887;28;20803;-86
2022/03/25 12:56:14;;;;;;;44.45;31.30;;;;;;;18.41;36.81;102922.88;5029981;28;20041;-86
2022/03/25 12:58:40;;;;;;;45.97;33.00;;;;;;;18.51;36.48;102920.53;5012610;28;20060;-83
2022/03/25 13:01:06;;;;;;;48.77;32.60;;;;;;;18.48;34.64;102931.09;5039613;28;20032;-82
2022/03/25 13:03:33;;;;;;;47.80;32.93;;;;;;;17.98;36.19;102901.44;5066157;28;20113;-83
2022/03/25 13:06:08;;;;;;;46.75;34.42;;;;;;;17.88;36.70;102908.13;5053223;28;20037;-82
2022/03/25 13:08:33;;;;;;;46.63;32.97;;;;;;;18.22;35.91;102935.56;5053456;28;20478;-82
2022/03/25 13:10:59;;;;;;;47.47;33.47;;;;;;;17.79;36.12;102903.03;5051778;28;20033;-83
2022/03/25 13:13:30;;;;;;;43.23;31.63;;;;;;;18.09;37.08;102906.25;5039555;28;20120;-83
2022/03/25 13:16:00;;;;;;;47.20;32.08;;;;;;;17.96;35.06;102900.78;5040896;28;20041;-82
2022/03/25 13:18:32;;;;;;;44.70;31.77;;;;;;;18.20;36.09;102913.84;5035545;28;20064;-81
2022/03/25 13:20:58;;;;;;;44.73;31.33;;;;;;;18.09;35.94;102924.59;5062550;28;20123;-84
2022/03/25 13:23:25;;;;;;;43.03;29.50;;;;;;;17.59;34.96;102886.59;5062310;28;20044;-82
2022/03/25 13:25:57;;;;;;;43.63;30.13;;;;;;;17.71;36.49;102902.22;5052511;28;20431;-82
2022/03/25 13:28:40;;;;;;;44.60;28.90;;;;;;;17.85;37.00;102889.34;5036847;28;20041;-83
2022/03/25 13:31:08;;;;;;;41.60;27.90;;;;;;;18.02;36.95;102880.75;5032612;28;20148;-85
2022/03/25 13:33:50;;;;;;;41.83;29.63;;;;;;;18.24;36.06;102917.00;5030981;28;20146;-85
2022/03/25 13:36:23;;;;;;;43.90;27.77;;;;;;;18.10;35.22;102886.00;5030424;28;20157;-88
2022/03/25 13:38:51;;;;;;;39.87;26.00;;;;;;;18.27;35.70;102904.78;5030945;28;20068;-85
2022/03/25 13:41:22;;;;;;;44.27;24.30;;;;;;;18.03;32.55;102901.59;5030505;28;20680;-85
2022/03/25 13:43:53;;;;;;;37.60;25.63;;;;;;;18.11;33.34;102906.03;5029431;28;20069;-86
2022/03/25 13:46:24;;;;;;;36.03;26.00;;;;;;;18.12;34.22;102907.75;5015327;28;20040;-86
2022/03/25 13:48:52;;;;;;;38.90;27.33;;;;;;;18.08;34.73;102901.00;5031196;28;20041;-83
2022/03/25 13:51:23;;;;;;;39.00;28.23;;;;;;;18.12;33.77;102903.09;5028297;28;20170;-85
2022/03/25 13:54:10;;;;;;;40.63;27.20;;;;;;;18.27;34.66;102900.13;5014049;28;20460;-82
2022/03/25 13:56:48;;;;;;;38.70;26.13;;;;;;;18.23;35.13;102898.84;5044579;28;20365;-82
2022/03/25 13:59:30;;;;;;;38.47;26.37;;;;;;;18.47;35.42;102889.09;5029175;28;20044;-84
2022/03/25 14:01:57;;;;;;;36.10;23.07;;;;;;;18.44;31.41;102889.53;5047800;28;20419;-83
2022/03/25 14:04:26;;;;;;;31.60;22.40;;;;;;;18.19;31.68;102881.13;5056601;28;20048;-83
2022/03/25 14:07:00;;;;;;;34.72;23.67;;;;;;;18.20;31.92;102899.28;5070879;28;20082;-81
2022/03/25 14:09:40;;;;;;;39.60;24.20;;;;;;;18.16;34.01;102887.06;5069596;28;20048;-81
2022/03/25 14:12:14;;;;;;;36.07;24.33;;;;;;;18.08;33.93;102888.09;5036417;28;20041;-82
2022/03/25 14:14:42;;;;;;;31.87;22.00;;;;;;;18.00;32.19;102863.66;5036741;28;20069;-83
2022/03/25 14:17:12;;;;;;;32.67;23.40;;;;;;;18.00;32.00;102883.69;5044352;28;20032;-81
2022/03/25 14:19:37;;;;;;;35.13;24.40;;;;;;;18.01;32.00;102874.41;5019067;28;20037;-82
2022/03/25 14:22:03;;;;;;;36.40;23.40;;;;;;;18.16;32.12;102876.91;5036308;28;20036;-82
2022/03/25 14:24:32;;;;;;;33.60;23.10;;;;;;;18.22;30.84;102876.06;5035963;28;20031;-81
2022/03/25 14:27:02;;;;;;;36.07;22.80;;;;;;;18.30;32.80;102876.88;5036723;28;20079;-82
2022/03/25 14:29:27;;;;;;;39.57;25.47;;;;;;;18.15;32.79;102874.38;5036253;28;20063;-82
2022/03/25 14:31:53;;;;;;;34.43;24.23;;;;;;;17.96;32.49;102865.97;5018393;28;20087;-81
2022/03/25 14:34:19;;;;;;;35.93;24.43;;;;;;;17.93;32.79;102880.09;5039895;28;20099;-82
2022/03/25 14:36:45;;;;;;;33.43;22.60;;;;;;;17.99;32.92;102876.53;5053544;28;20041;-82
2022/03/25 14:39:12;;;;;;;35.03;24.03;;;;;;;17.93;34.00;102849.94;5033449;28;20045;-82
2022/03/25 14:41:39;;;;;;;38.03;26.27;;;;;;;17.87;34.09;102853.50;5034397;28;20040;-82
2022/03/25 14:44:07;;;;;;;38.97;28.93;;;;;;;17.90;34.54;102847.59;5017980;28;20038;-82
2022/03/25 14:46:37;;;;;;;41.00;27.80;;;;;;;17.86;35.13;102843.59;5046227;28;20090;-82
2022/03/25 14:49:03;;;;;;;37.43;26.97;;;;;;;17.95;33.39;102853.31;5054477;28;20380;-83
2022/03/25 14:51:29;;;;;;;36.20;27.30;;;;;;;18.00;34.50;102850.75;5035743;28;20037;-83
2022/03/25 14:53:54;;;;;;;39.27;27.97;;;;;;;18.13;34.67;102849.91;5044495;28;20037;-82
2022/03/25 14:56:20;;;;;;;35.03;26.37;;;;;;;18.05;33.87;102839.16;5035916;28;20033;-83
2022/03/25 14:58:45;;;;;;;38.57;26.37;;;;;;;18.12;33.57;102833.66;5035609;28;20029;-83
2022/03/25 15:01:11;;;;;;;36.83;25.00;;;;;;;18.41;32.95;102858.94;5035569;28;20350;-83
2022/03/25 15:03:37;;;;;;;35.28;24.08;;;;;;;18.17;32.37;102833.88;5056211;28;20128;-82
2022/03/25 15:06:02;;;;;;;34.97;21.48;;;;;;;18.22;32.46;102832.19;5075727;28;20082;-83
2022/03/25 15:08:29;;;;;;;35.90;22.83;;;;;;;18.25;32.02;102819.94;5075944;28;20108;-81
2022/03/25 15:10:55;;;;;;;37.33;23.87;;;;;;;18.27;32.19;102817.78;5047359;28;20040;-82
2022/03/25 15:13:21;;;;;;;30.42;23.10;;;;;;;18.36;32.68;102843.94;5017866;28;20046;-81
2022/03/25 15:15:47;;;;;;;32.10;23.10;;;;;;;18.45;32.69;102830.00;5035642;28;20034;-82
2022/03/25 15:18:13;;;;;;;35.00;23.20;;;;;;;18.53;32.54;102832.50;5036690;28;20048;-82
2022/03/25 15:20:40;;;;;;;32.67;22.00;;;;;;;18.53;31.89;102824.25;5042527;28;20048;-82
2022/03/25 15:23:05;;;;;;;34.25;21.80;;;;;;;18.49;31.75;102826.56;5046055;28;20035;-84
2022/03/25 15:25:31;;;;;;;31.45;22.30;;;;;;;18.43;32.83;102823.84;5050941;28;20116;-82
2022/03/25 15:27:57;;;;;;;33.30;21.70;;;;;;;18.60;32.34;102838.78;5045178;28;20056;-81
2022/03/25 15:35:50;;;;;;;30.70;22.23;;;;;;;18.58;31.05;102827.19;5048443;28;20397;-82
2022/03/25 15:38:15;;;;;;;33.00;22.83;;;;;;;18.35;31.67;102808.50;5039653;28;20033;-82
2022/03/25 15:40:41;;;;;;;31.55;22.40;;;;;;;18.48;31.47;102813.94;5053495;28;20040;-82
2022/03/25 15:43:07;;;;;;;33.00;22.83;;;;;;;18.62;32.44;102817.47;5028457;28;20077;-86
2022/03/25 15:45:33;;;;;;;35.78;22.98;;;;;;;18.42;32.44;102803.81;5032560;28;20033;-83
2022/03/25 15:47:58;;;;;;;37.58;24.90;;;;;;;18.38;32.60;102814.38;5019246;28;20045;-83
2022/03/25 15:50:25;;;;;;;34.45;24.27;;;;;;;18.30;33.77;102800.06;5025504;28;20040;-82
2022/03/25 15:52:50;;;;;;;33.72;24.90;;;;;;;18.53;33.73;102805.03;5046301;28;20029;-82
2022/03/25 15:55:16;;;;;;;34.97;23.88;;;;;;;18.61;35.13;102801.22;5023962;28;20039;-84
2022/03/25 15:58:00;;;;;;;34.65;23.63;;;;;;;19.12;34.33;102830.56;5024331;28;20061;-82
2022/03/25 16:00:28;;;;;;;38.78;24.90;;;;;;;18.57;32.63;102803.53;5016793;28;20757;-82
2022/03/25 16:02:55;;;;;;;33.53;24.02;;;;;;;18.33;32.44;102792.25;5040097;28;20120;-82
2022/03/25 16:05:57;;;;;;;35.92;23.33;;;;;;;18.47;32.49;102831.47;5048378;28;20447;-81
2022/03/25 16:08:23;;;;;;;35.42;23.80;;;;;;;18.16;33.49;102804.75;5033727;28;20128;-82
2022/03/25 16:10:50;;;;;;;34.90;23.67;;;;;;;18.02;34.12;102814.91;5034608;28;20144;-82
2022/03/25 16:13:16;;;;;;;33.58;23.85;;;;;;;17.85;34.50;102803.50;5023649;28;20054;-85
2022/03/25 16:15:43;;;;;;;32.30;22.92;;;;;;;17.79;34.69;102802.47;5022096;28;20037;-82
2022/03/25 16:18:09;;;;;;;36.47;24.73;;;;;;;17.89;36.09;102811.09;5037839;28;20040;-83
2022/03/25 16:20:35;;;;;;;36.17;24.47;;;;;;;17.80;34.54;102801.41;5034931;28;20034;-81
2022/03/25 16:23:16;;;;;;;36.37;24.10;;;;;;;18.11;35.22;102829.22;5022859;28;20376;-82
2022/03/25 16:25:42;;;;;;;33.80;24.07;;;;;;;17.97;34.80;102798.25;5039339;28;20045;-82
2022/03/25 16:28:08;;;;;;;34.07;23.87;;;;;;;17.97;34.62;102811.97;5044987;28;20033;-82
2022/03/25 16:30:36;;;;;;;35.17;24.07;;;;;;;18.02;35.49;102815.75;5028494;28;20060;-86
2022/03/25 16:33:03;;;;;;;33.93;24.10;;;;;;;17.86;35.01;102821.66;5035322;28;20025;-92
2022/03/25 16:35:29;;;;;;;35.50;24.43;;;;;;;17.92;34.91;102820.81;5017998;28;20051;-82
2022/03/25 16:37:55;;;;;;;32.97;23.07;;;;;;;17.98;35.04;102819.16;5047919;28;20372;-87
2022/03/25 16:40:20;;;;;;;33.47;23.30;;;;;;;17.84;35.65;102816.38;5022452;28;20056;-82
2022/03/25 16:42:48;;;;;;;34.90;24.23;;;;;;;17.86;35.62;102814.25;5036670;28;20037;-85
2022/03/25 16:45:14;;;;;;;34.97;24.90;;;;;;;17.74;35.50;102823.34;4992223;28;20696;-83
2022/03/25 16:47:39;;;;;;;34.57;24.67;;;;;;;17.47;35.09;102812.38;5028780;28;20123;-86
2022/03/25 16:50:08;;;;;;;35.97;23.43;;;;;;;17.30;36.75;102811.94;5030225;28;20076;-87
2022/03/25 16:52:34;;;;;;;36.60;24.70;;;;;;;17.27;36.97;102829.66;5027628;28;20049;-86
2022/03/25 16:54:59;;;;;;;35.97;25.00;;;;;;;17.08;37.50;102819.50;5012399;28;20480;-88
2022/03/25 16:57:25;;;;;;;32.83;23.87;;;;;;;16.89;37.44;102813.78;5026399;28;20064;-87
2022/03/25 16:59:50;;;;;;;36.13;24.13;;;;;;;16.73;38.33;102820.41;5029292;28;20228;-86
2022/03/25 17:02:16;;;;;;;34.73;23.60;;;;;;;16.60;39.21;102831.31;5008177;28;20326;-87
2022/03/25 17:04:41;;;;;;;35.37;24.33;;;;;;;16.35;39.12;102824.44;5028528;28;20049;-88
2022/03/25 17:07:10;;;;;;;37.73;24.33;;;;;;;16.24;39.63;102822.31;5028966;28;20038;-87
2022/03/25 17:09:35;;;;;;;37.63;24.67;;;;;;;16.33;39.30;102850.31;5029433;28;20109;-88
2022/03/25 17:12:01;;;;;;;35.83;24.47;;;;;;;16.10;39.32;102824.13;5028063;28;20507;-90
2022/03/25 17:14:26;;;;;;;35.10;24.17;;;;;;;15.81;38.81;102820.53;5027058;28;20047;-86
2022/03/25 17:16:52;;;;;;;39.83;23.37;;;;;;;15.72;40.44;102826.31;5031261;28;20129;-85
2022/03/25 17:19:18;;;;;;;33.73;24.27;;;;;;;15.61;40.40;102824.97;5030206;28;20060;-85
2022/03/25 17:21:43;;;;;;;33.77;24.13;;;;;;;15.57;41.06;102840.91;5028236;28;20045;-85
2022/03/25 17:24:10;;;;;;;38.07;23.70;;;;;;;15.39;40.35;102826.88;5008728;28;20033;-85
2022/03/25 17:26:36;;;;;;;39.40;23.90;;;;;;;15.36;41.61;102831.66;5028435;28;20048;-88
2022/03/25 17:29:02;;;;;;;37.03;24.37;;;;;;;15.14;41.40;102816.34;5005437;28;20037;-90
2022/03/25 17:31:28;;;;;;;36.70;23.77;;;;;;;15.08;42.77;102831.63;5029257;28;20088;-86
2022/03/25 17:33:53;;;;;;;36.50;24.40;;;;;;;14.96;42.27;102823.09;5033874;28;20041;-86
2022/03/25 17:36:20;;;;;;;36.10;24.07;;;;;;;14.99;43.03;102855.44;5034063;28;20049;-87
2022/03/25 17:38:46;;;;;;;37.00;23.47;;;;;;;14.69;42.19;102820.03;5036907;28;20067;-88
2022/03/25 17:41:12;;;;;;;34.93;23.77;;;;;;;14.76;42.29;102841.94;5035077;28;20098;-87
2022/03/25 17:43:38;;;;;;;36.93;23.13;;;;;;;14.44;43.40;102816.75;5019017;28;20041;-87
2022/03/25 17:46:04;;;;;;;35.83;22.90;;;;;;;14.32;43.20;102820.97;5034434;28;20480;-83
2022/03/25 17:48:29;;;;;;;36.63;22.80;;;;;;;14.39;43.98;102848.34;5031597;28;20037;-88
2022/03/25 17:50:57;;;;;;;36.67;22.87;;;;;;;14.14;43.19;102830.41;5022726;28;20057;-83
2022/03/25 17:53:25;;;;;;;36.03;23.10;;;;;;;14.04;43.43;102829.81;5033443;28;20087;-83
2022/03/25 17:55:50;;;;;;;35.70;22.20;;;;;;;13.97;44.39;102834.31;5018125;28;20404;-87
2022/03/25 17:58:23;;;;;;;34.33;22.70;;;;;;;13.81;44.60;102836.16;5036851;28;20041;-85
2022/03/25 18:00:49;;;;;;;37.60;22.43;;;;;;;13.78;44.84;102850.16;5031708;28;20560;-86
2022/03/25 18:03:14;;;;;;;37.60;23.57;;;;;;;13.64;45.09;102843.66;5016867;28;20072;-85
2022/03/25 18:05:41;;;;;;;32.80;22.63;;;;;;;13.43;45.60;102827.16;5033381;28;20128;-83
2022/03/25 18:08:11;;;;;;;35.07;23.53;;;;;;;13.36;46.31;102839.81;5014561;28;20480;-84
2022/03/25 18:10:40;;;;;;;36.07;23.23;;;;;;;13.24;46.26;102833.88;5034334;28;20340;-83
2022/03/25 18:13:06;;;;;;;33.10;22.87;;;;;;;13.24;46.28;102859.22;5035129;28;20666;-80
2022/03/25 18:15:33;;;;;;;35.30;23.60;;;;;;;12.98;46.90;102833.19;5037245;28;20440;-81
2022/03/25 18:18:04;;;;;;;36.00;23.13;;;;;;;13.06;46.93;102861.41;5032949;28;20566;-81
2022/03/25 18:20:30;;;;;;;38.13;24.37;;;;;;;12.81;46.78;102840.59;5033433;28;20051;-84
2022/03/25 18:22:56;;;;;;;38.53;24.47;;;;;;;12.78;47.77;102851.84;5032108;28;20477;-82
2022/03/25 18:25:23;;;;;;;39.97;23.37;;;;;;;12.77;47.37;102862.88;5031468;28;20051;-79
2022/03/25 18:27:48;;;;;;;38.63;24.20;;;;;;;12.65;47.95;102860.56;5032345;28;20092;-84
2022/03/25 18:30:14;;;;;;;38.20;23.13;;;;;;;12.40;49.08;102846.22;5031639;28;20457;-82
2022/03/25 18:32:40;;;;;;;37.97;24.27;;;;;;;12.19;50.53;102838.63;5013643;28;20061;-84
2022/03/25 18:35:07;;;;;;;39.20;23.73;;;;;;;12.14;51.49;102849.16;5029474;28;20495;-78
2022/03/25 18:37:34;;;;;;;36.30;23.53;;;;;;;11.98;51.33;102844.59;5029289;28;20068;-90
2022/03/25 18:39:59;;;;;;;36.17;23.77;;;;;;;11.85;50.73;102836.97;5014115;28;20051;-84
2022/03/25 18:42:25;;;;;;;36.33;23.53;;;;;;;11.86;50.58;102846.81;5030552;28;20048;-82
2022/03/25 18:44:50;;;;;;;38.90;23.97;;;;;;;11.81;50.19;102849.19;5027887;28;20048;-83
2022/03/25 18:47:16;;;;;;;36.00;23.30;;;;;;;11.90;50.25;102863.59;5026729;28;20045;-82
2022/03/25 18:49:41;;;;;;;37.37;22.97;;;;;;;11.78;50.28;102865.84;5026216;28;20080;-83
2022/03/25 18:52:07;;;;;;;36.97;24.20;;;;;;;11.44;52.90;102851.38;5027396;28;20041;-85
2022/03/25 18:54:33;;;;;;;43.27;25.73;;;;;;;11.47;53.57;102870.03;5009231;28;20126;-81
2022/03/25 18:57:00;;;;;;;41.60;25.07;;;;;;;11.25;53.26;102860.69;5026642;28;21543;-78
2022/03/25 18:59:26;;;;;;;40.07;25.40;;;;;;;11.13;53.32;102857.44;5008351;28;20466;-85
2022/03/25 19:01:52;;;;;;;38.90;24.93;;;;;;;10.93;53.31;102851.47;5026931;28;20041;-84
2022/03/25 19:04:18;;;;;;;44.40;25.60;;;;;;;10.80;54.06;102862.78;5008293;28;20488;-80
2022/03/25 19:06:43;;;;;;;43.33;26.00;;;;;;;10.74;55.42;102865.28;5027446;28;20066;-84
2022/03/25 19:09:09;;;;;;;36.40;24.90;;;;;;;10.57;55.80;102857.09;5016132;28;20701;-84
2022/03/25 19:11:34;;;;;;;48.47;26.17;;;;;;;10.68;55.70;102891.19;5016694;28;20520;-85
2022/03/25 19:13:59;;;;;;;58.23;26.97;;;;;;;10.59;55.99;102895.75;5027297;28;20128;-85
2022/03/25 19:16:25;;;;;;;49.70;27.33;;;;;;;10.30;57.65;102874.38;5027446;28;20519;-81
2022/03/25 19:18:51;;;;;;;49.07;26.07;;;;;;;10.19;56.74;102875.47;5027106;28;20404;-78
2022/03/25 19:21:17;;;;;;;52.27;27.03;;;;;;;10.13;58.07;102881.53;5027599;28;20049;-82